Time;durP1;ratioP1;P1;durP2;ratioP2;P2;SDS_P1;SDS_P2;PMS_P1;PMS_P2;Temp;Humidity;BMP_temperature;BMP_pressure;BME280_temperature;BME280_humidity;BME280_pressure;Samples;Min_cycle;Max_cycle;Signal;HPM_P1;HPM_P2
2023/08/03 00:02:08;;;;;;;12.02;5.00;;;15.10;99.90;;;;;;5051886;28;20128;-70
2023/08/03 00:04:33;;;;;;;10.25;5.32;;;15.10;99.90;;;;;;5062277;28;20021;-70
2023/08/03 00:06:59;;;;;;;12.15;5.10;;;15.10;99.90;;;;;;5055997;28;20041;-70
2023/08/03 00:09:24;;;;;;;11.63;4.68;;;15.20;99.90;;;;;;5049335;28;20030;-70
2023/08/03 00:11:50;;;;;;;14.77;5.20;;;15.20;99.90;;;;;;5063796;28;20108;-70
2023/08/03 00:14:15;;;;;;;10.32;4.95;;;15.20;99.90;;;;;;5042624;28;20040;-70
2023/08/03 00:16:41;;;;;;;14.10;4.65;;;15.20;99.90;;;;;;5058170;28;20467;-70
2023/08/03 00:19:06;;;;;;;16.88;4.72;;;15.20;99.90;;;;;;5053496;28;20032;-70
2023/08/03 00:21:32;;;;;;;10.82;4.70;;;15.20;99.90;;;;;;5058046;28;20094;-70
2023/08/03 00:23:57;;;;;;;10.65;4.47;;;15.20;99.90;;;;;;5046332;28;20025;-70
2023/08/03 00:26:22;;;;;;;12.95;5.05;;;15.20;99.90;;;;;;5050614;28;20082;-70
2023/08/03 00:28:48;;;;;;;11.98;4.47;;;15.30;99.90;;;;;;5044406;28;20052;-70
2023/08/03 00:31:13;;;;;;;12.63;4.43;;;15.30;99.90;;;;;;5053529;28;20287;-70
2023/08/03 00:33:39;;;;;;;14.13;4.40;;;15.30;99.90;;;;;;5047025;28;20029;-70
2023/08/03 00:36:04;;;;;;;14.75;4.85;;;15.30;99.90;;;;;;5041402;28;20431;-70
2023/08/03 00:38:30;;;;;;;9.63;4.75;;;15.30;99.90;;;;;;5043612;28;20044;-70
2023/08/03 00:40:55;;;;;;;8.73;4.40;;;15.30;99.90;;;;;;5048438;28;20535;-70
2023/08/03 00:43:21;;;;;;;11.60;4.72;;;15.30;99.90;;;;;;5045080;28;20040;-70
2023/08/03 00:45:46;;;;;;;7.75;4.30;;;15.20;99.90;;;;;;5052336;28;20106;-70
2023/08/03 00:48:12;;;;;;;12.35;4.53;;;15.20;99.90;;;;;;5051976;28;20051;-70
2023/08/03 00:50:37;;;;;;;10.70;4.47;;;15.10;99.90;;;;;;5052340;28;20033;-70
2023/08/03 00:53:03;;;;;;;9.25;4.40;;;15.10;99.90;;;;;;5053280;28;20029;-70
2023/08/03 00:55:29;;;;;;;12.95;4.72;;;15.20;99.90;;;;;;5045847;28;20044;-70
2023/08/03 00:57:54;;;;;;;13.68;4.93;;;15.20;99.90;;;;;;5040433;28;20103;-70
2023/08/03 01:00:20;;;;;;;14.15;4.65;;;15.20;99.90;;;;;;5042091;28;20036;-70
2023/08/03 01:02:45;;;;;;;12.68;4.78;;;15.30;99.90;;;;;;5043834;28;20568;-70
2023/08/03 01:05:11;;;;;;;12.80;4.85;;;15.30;99.90;;;;;;5050370;28;20068;-70
2023/08/03 01:07:36;;;;;;;9.75;4.15;;;15.30;99.90;;;;;;5041801;28;20032;-70
2023/08/03 01:10:02;;;;;;;13.23;4.35;;;15.30;99.90;;;;;;5037819;28;20041;-70
2023/08/03 01:12:28;;;;;;;10.63;4.53;;;15.30;99.90;;;;;;5053850;28;20485;-70
2023/08/03 01:14:54;;;;;;;9.10;4.38;;;15.30;99.90;;;;;;5043191;28;20500;-70
2023/08/03 01:17:20;;;;;;;11.43;4.45;;;15.30;99.90;;;;;;5050913;28;20119;-70
2023/08/03 01:19:46;;;;;;;12.77;4.45;;;15.20;99.90;;;;;;5050747;28;20040;-70
2023/08/03 01:22:13;;;;;;;13.65;4.55;;;15.20;99.90;;;;;;5043615;28;20028;-70
2023/08/03 01:24:38;;;;;;;19.67;4.65;;;15.20;99.90;;;;;;5047061;28;20080;-70
2023/08/03 01:27:04;;;;;;;9.13;4.03;;;15.30;99.90;;;;;;5045352;28;20122;-70
2023/08/03 01:29:30;;;;;;;14.45;4.25;;;15.20;99.90;;;;;;5038305;28;20480;-70
2023/08/03 01:31:57;;;;;;;8.02;4.18;;;15.20;99.90;;;;;;5042031;28;20050;-70
2023/08/03 01:34:24;;;;;;;10.70;4.20;;;15.20;99.90;;;;;;5048664;28;20090;-70
2023/08/03 01:36:51;;;;;;;11.35;3.63;;;15.20;99.90;;;;;;5047391;28;20029;-70
2023/08/03 01:39:16;;;;;;;9.07;3.95;;;15.20;99.90;;;;;;5043589;28;20035;-70
2023/08/03 01:41:42;;;;;;;14.00;4.30;;;15.30;99.90;;;;;;5043769;28;20436;-70
2023/08/03 01:44:28;;;;;;;9.77;3.85;;;15.20;99.90;;;;;;5045529;28;20020;-70
2023/08/03 01:46:55;;;;;;;10.57;4.15;;;15.20;99.90;;;;;;5048393;28;20162;-70
2023/08/03 01:49:23;;;;;;;10.30;4.00;;;15.20;99.90;;;;;;5041014;28;20029;-70
2023/08/03 01:51:50;;;;;;;11.75;3.67;;;15.20;99.90;;;;;;5048484;28;20507;-70
2023/08/03 01:54:15;;;;;;;10.05;4.25;;;15.20;99.90;;;;;;5040437;28;20476;-70
2023/08/03 01:56:41;;;;;;;11.98;4.00;;;15.20;99.90;;;;;;5047641;28;20051;-70
2023/08/03 01:59:07;;;;;;;6.60;3.35;;;15.20;99.90;;;;;;5043529;28;20032;-70
2023/08/03 02:01:33;;;;;;;12.23;3.95;;;15.10;99.90;;;;;;5050266;28;20041;-70
2023/08/03 02:03:58;;;;;;;11.98;3.70;;;15.10;99.90;;;;;;5045525;28;20043;-70
2023/08/03 02:06:23;;;;;;;11.38;4.10;;;15.10;99.90;;;;;;5039356;28;20044;-70
2023/08/03 02:08:49;;;;;;;7.55;3.50;;;15.10;99.90;;;;;;5038362;28;20026;-70
2023/08/03 02:11:14;;;;;;;14.90;3.80;;;15.10;99.90;;;;;;5042182;28;20116;-70
2023/08/03 02:13:40;;;;;;;13.00;3.35;;;15.10;99.90;;;;;;5042417;28;20075;-70
2023/08/03 02:16:10;;;;;;;10.65;4.10;;;15.20;99.90;;;;;;5037569;28;20033;-70
2023/08/03 02:18:37;;;;;;;9.95;3.35;;;15.20;99.90;;;;;;5037646;28;20104;-70
2023/08/03 02:21:03;;;;;;;11.32;3.72;;;15.10;99.90;;;;;;5036449;28;20128;-70
2023/08/03 02:23:28;;;;;;;13.07;3.50;;;15.20;99.90;;;;;;5044069;28;20116;-70
2023/08/03 02:25:53;;;;;;;9.82;3.78;;;15.20;99.90;;;;;;5043077;28;20500;-70
2023/08/03 02:28:19;;;;;;;10.02;3.47;;;15.20;99.90;;;;;;5042442;28;20037;-70
2023/08/03 02:30:45;;;;;;;9.90;3.38;;;15.20;99.90;;;;;;5042042;28;20112;-70
2023/08/03 02:33:10;;;;;;;7.40;3.60;;;15.20;99.90;;;;;;5059411;28;20033;-70
2023/08/03 02:35:39;;;;;;;12.63;3.45;;;15.20;99.90;;;;;;5039599;28;20120;-70
2023/08/03 02:38:08;;;;;;;11.35;3.30;;;15.20;99.90;;;;;;5040112;28;20034;-70
2023/08/03 02:40:33;;;;;;;13.68;3.10;;;15.20;99.90;;;;;;5047365;28;20048;-70
2023/08/03 02:42:59;;;;;;;12.65;3.65;;;15.10;99.90;;;;;;5058123;28;20032;-70
2023/08/03 02:45:24;;;;;;;7.80;3.00;;;15.10;99.90;;;;;;5045642;28;20034;-70
2023/08/03 02:47:50;;;;;;;8.30;3.25;;;15.20;99.90;;;;;;5046794;28;20033;-70
2023/08/03 02:50:15;;;;;;;9.75;3.20;;;15.10;99.90;;;;;;5049698;28;20060;-70
2023/08/03 02:52:41;;;;;;;8.32;3.28;;;15.20;99.90;;;;;;5040092;28;20033;-70
2023/08/03 02:55:07;;;;;;;17.10;3.47;;;15.10;99.90;;;;;;5045014;28;20392;-70
2023/08/03 02:57:32;;;;;;;10.85;3.40;;;15.10;99.90;;;;;;5046373;28;20037;-70
2023/08/03 02:59:58;;;;;;;10.85;2.85;;;15.10;99.90;;;;;;5052173;28;20028;-70
2023/08/03 03:02:23;;;;;;;12.95;3.10;;;15.20;99.90;;;;;;5048083;28;20406;-70
2023/08/03 03:04:51;;;;;;;11.97;3.00;;;15.10;99.90;;;;;;5051016;28;20033;-70
2023/08/03 03:07:17;;;;;;;9.80;3.42;;;15.20;99.90;;;;;;5044456;28;20091;-70
2023/08/03 03:09:42;;;;;;;9.40;2.97;;;15.20;99.90;;;;;;5036430;28;20060;-70
2023/08/03 03:12:08;;;;;;;9.65;2.65;;;15.10;99.90;;;;;;5042118;28;20037;-70
2023/08/03 03:14:36;;;;;;;9.45;3.20;;;15.20;99.90;;;;;;5035000;28;20075;-70
2023/08/03 03:17:03;;;;;;;8.70;3.00;;;15.10;99.90;;;;;;5042750;28;20021;-70
2023/08/03 03:19:28;;;;;;;12.20;2.58;;;15.10;99.90;;;;;;5049971;28;20028;-70
2023/08/03 03:21:54;;;;;;;10.93;3.03;;;15.10;99.90;;;;;;5058340;28;20484;-70
2023/08/03 03:24:19;;;;;;;11.38;3.00;;;15.10;99.90;;;;;;5036773;28;21020;-70
2023/08/03 03:26:46;;;;;;;9.52;2.53;;;15.10;99.90;;;;;;5045727;28;20040;-70
2023/08/03 03:29:11;;;;;;;6.28;2.55;;;15.10;99.90;;;;;;5042813;28;20036;-70
2023/08/03 03:31:37;;;;;;;7.68;3.00;;;15.10;99.90;;;;;;5042284;28;20079;-70
2023/08/03 03:34:02;;;;;;;7.95;2.60;;;15.10;99.90;;;;;;5049007;28;20483;-70
2023/08/03 03:36:28;;;;;;;9.63;2.65;;;15.10;99.90;;;;;;5047896;28;20060;-70
2023/08/03 03:38:53;;;;;;;8.50;2.60;;;15.10;99.90;;;;;;5050216;28;20047;-70
2023/08/03 03:41:19;;;;;;;8.43;2.78;;;15.10;99.90;;;;;;5042666;28;20034;-70
2023/08/03 03:43:44;;;;;;;12.63;2.60;;;15.10;99.90;;;;;;5041294;28;20428;-69
2023/08/03 03:46:10;;;;;;;10.70;2.83;;;15.10;99.90;;;;;;5037705;28;20041;-70
2023/08/03 03:48:35;;;;;;;10.88;2.80;;;15.10;99.90;;;;;;5047630;28;20420;-70
2023/08/03 03:51:01;;;;;;;11.70;2.53;;;15.10;99.90;;;;;;5052035;28;20033;-69
2023/08/03 03:53:26;;;;;;;11.18;2.60;;;15.10;99.90;;;;;;5060153;28;20076;-69
2023/08/03 03:55:51;;;;;;;12.50;3.10;;;15.10;99.90;;;;;;5037272;28;20044;-70
2023/08/03 03:58:17;;;;;;;8.93;2.20;;;15.10;99.90;;;;;;5037819;28;20444;-70
2023/08/03 04:00:43;;;;;;;12.07;2.75;;;15.10;99.90;;;;;;5038978;28;20029;-70
2023/08/03 04:03:09;;;;;;;10.80;2.58;;;15.00;99.90;;;;;;5046372;28;20031;-70
2023/08/03 04:05:35;;;;;;;6.63;2.55;;;15.00;99.90;;;;;;5047057;28;20116;-70
2023/08/03 04:08:01;;;;;;;5.53;2.10;;;15.00;99.90;;;;;;5044566;28;20498;-70
2023/08/03 04:10:27;;;;;;;9.38;2.15;;;15.00;99.90;;;;;;5036970;28;20104;-70
2023/08/03 04:12:53;;;;;;;7.82;2.20;;;15.00;99.90;;;;;;5044383;28;20047;-70
2023/08/03 04:15:18;;;;;;;8.77;2.30;;;15.00;99.90;;;;;;5038185;28;20030;-70
2023/08/03 04:17:48;;;;;;;8.52;1.90;;;15.00;99.90;;;;;;5045071;28;20033;-70
2023/08/03 04:20:15;;;;;;;5.80;2.10;;;15.00;99.90;;;;;;5047594;28;20044;-70
2023/08/03 04:22:40;;;;;;;8.18;1.80;;;15.00;99.90;;;;;;5042843;28;20021;-70
2023/08/03 04:25:06;;;;;;;6.10;1.98;;;15.00;99.90;;;;;;5045237;28;20133;-70
2023/08/03 04:27:32;;;;;;;7.03;1.98;;;15.00;99.90;;;;;;5045818;28;20033;-70
2023/08/03 04:29:57;;;;;;;7.93;1.80;;;15.00;99.90;;;;;;5042810;28;20457;-70
2023/08/03 04:32:22;;;;;;;4.28;1.90;;;15.10;99.90;;;;;;5050962;28;20040;-70
2023/08/03 04:34:48;;;;;;;8.02;2.00;;;15.00;99.90;;;;;;5048818;28;20032;-70
2023/08/03 04:37:13;;;;;;;5.53;1.90;;;15.00;99.90;;;;;;5044900;28;20568;-70
2023/08/03 04:39:39;;;;;;;6.00;1.58;;;15.00;99.90;;;;;;5048141;28;20033;-70
2023/08/03 04:42:04;;;;;;;6.43;1.77;;;15.00;99.90;;;;;;5048335;28;20108;-70
2023/08/03 04:44:30;;;;;;;6.75;1.73;;;15.00;99.90;;;;;;5041604;28;20070;-70
2023/08/03 04:46:55;;;;;;;5.85;1.90;;;15.00;99.90;;;;;;5045080;28;20043;-70
2023/08/03 04:49:22;;;;;;;6.47;1.73;;;15.00;99.90;;;;;;5057765;28;20461;-70
2023/08/03 04:51:49;;;;;;;7.70;2.17;;;15.00;99.90;;;;;;5044531;28;20025;-70
2023/08/03 04:54:15;;;;;;;4.80;2.00;;;15.10;99.90;;;;;;5044558;28;20029;-71
2023/08/03 04:56:40;;;;;;;3.95;1.65;;;15.10;99.90;;;;;;5048454;28;20513;-70
2023/08/03 04:59:06;;;;;;;5.50;2.00;;;15.10;99.90;;;;;;5042852;28;20033;-69
2023/08/03 05:01:31;;;;;;;7.88;1.75;;;15.10;99.90;;;;;;5048054;28;20435;-69
2023/08/03 05:03:59;;;;;;;5.32;1.63;;;15.10;99.90;;;;;;5049081;28;20028;-70
2023/08/03 05:06:25;;;;;;;3.05;1.20;;;15.10;99.90;;;;;;5040791;28;20119;-70
2023/08/03 05:08:51;;;;;;;4.03;1.50;;;15.10;99.90;;;;;;5044838;28;20128;-70
2023/08/03 05:11:16;;;;;;;3.17;1.52;;;15.10;99.90;;;;;;5053538;28;20037;-70
2023/08/03 05:13:41;;;;;;;5.22;1.33;;;15.10;99.90;;;;;;5048147;28;20029;-71
2023/08/03 05:16:07;;;;;;;3.55;1.27;;;15.20;99.90;;;;;;5038710;28;20029;-69
2023/08/03 05:18:32;;;;;;;2.97;1.40;;;15.30;99.90;;;;;;5044919;28;20536;-70
2023/08/03 05:20:58;;;;;;;4.78;1.38;;;15.30;99.90;;;;;;5039494;28;20025;-70
2023/08/03 05:23:23;;;;;;;4.30;1.30;;;15.30;99.90;;;;;;5040085;28;20057;-68
2023/08/03 05:25:56;;;;;;;2.72;1.45;;;15.30;99.90;;;;;;5040991;28;20420;-68
2023/08/03 05:28:22;;;;;;;4.10;1.50;;;15.30;99.90;;;;;;5051447;28;20079;-70
2023/08/03 05:30:48;;;;;;;5.32;1.40;;;15.30;99.90;;;;;;5037618;28;20033;-69
2023/08/03 05:33:14;;;;;;;3.40;1.40;;;15.30;99.90;;;;;;5041781;28;20047;-70
2023/08/03 05:35:40;;;;;;;4.60;1.70;;;15.40;99.90;;;;;;5047017;28;20056;-69
2023/08/03 05:38:05;;;;;;;2.85;1.27;;;15.50;99.90;;;;;;5045964;28;20126;-69
2023/08/03 05:40:31;;;;;;;3.30;1.50;;;15.40;99.90;;;;;;5039006;28;20036;-68
2023/08/03 05:42:56;;;;;;;5.32;1.50;;;15.40;99.90;;;;;;5046508;28;20025;-68
2023/08/03 05:45:39;;;;;;;2.33;1.13;;;15.50;99.90;;;;;;5041982;28;20049;-68
2023/08/03 05:48:12;;;;;;;2.00;1.13;;;15.50;99.90;;;;;;5041983;28;20116;-68
2023/08/03 05:50:41;;;;;;;1.80;1.10;;;15.50;99.90;;;;;;5040551;28;20482;-68
2023/08/03 05:53:09;;;;;;;2.53;1.40;;;15.50;99.90;;;;;;5052543;28;20028;-68
2023/08/03 05:55:35;;;;;;;3.22;1.27;;;15.50;99.90;;;;;;5035375;28;20029;-68
2023/08/03 05:58:01;;;;;;;2.53;1.38;;;15.50;99.90;;;;;;5053391;28;20035;-68
2023/08/03 06:00:28;;;;;;;2.15;1.15;;;15.50;99.90;;;;;;5042939;28;20029;-68
2023/08/03 06:02:57;;;;;;;5.20;1.38;;;15.50;99.90;;;;;;5046498;28;20424;-69
2023/08/03 06:05:38;;;;;;;1.98;1.33;;;15.50;99.90;;;;;;5052424;28;20430;-68
2023/08/03 06:08:17;;;;;;;2.47;1.40;;;15.60;99.90;;;;;;5045118;28;20485;-68
2023/08/03 06:10:45;;;;;;;1.80;1.20;;;15.60;99.90;;;;;;5044941;28;20115;-68
2023/08/03 06:13:17;;;;;;;3.25;1.40;;;15.70;99.90;;;;;;5050812;28;20024;-68
2023/08/03 06:15:44;;;;;;;2.67;1.50;;;15.70;99.90;;;;;;5044033;28;20389;-68
2023/08/03 06:18:16;;;;;;;1.50;1.10;;;15.70;99.90;;;;;;5062019;28;20070;-67
2023/08/03 06:20:49;;;;;;;3.05;1.13;;;15.70;99.90;;;;;;5046320;28;20021;-68
2023/08/03 06:23:20;;;;;;;1.23;1.13;;;15.70;99.90;;;;;;5053703;28;20036;-68
2023/08/03 06:25:47;;;;;;;2.42;0.90;;;15.70;99.90;;;;;;5040870;28;20073;-68
2023/08/03 06:28:16;;;;;;;1.08;0.98;;;15.70;99.90;;;;;;5047789;28;20056;-68
2023/08/03 06:30:42;;;;;;;2.13;1.20;;;15.70;99.90;;;;;;5046567;28;20080;-68
2023/08/03 06:33:13;;;;;;;4.07;1.45;;;15.70;99.90;;;;;;5049955;28;20456;-68
2023/08/03 06:35:40;;;;;;;3.55;1.58;;;15.70;99.90;;;;;;5046125;28;20061;-68
2023/08/03 06:38:08;;;;;;;3.60;1.65;;;15.80;99.90;;;;;;5042524;28;20033;-69
2023/08/03 06:40:34;;;;;;;2.67;1.38;;;15.80;99.90;;;;;;5033523;28;20025;-68
2023/08/03 06:43:03;;;;;;;2.45;1.52;;;15.70;99.90;;;;;;5046901;28;20480;-68
2023/08/03 06:45:32;;;;;;;2.67;1.70;;;15.70;99.90;;;;;;5040887;28;20393;-68
2023/08/03 06:48:02;;;;;;;3.42;1.58;;;15.70;99.90;;;;;;5053391;28;20468;-68
2023/08/03 06:50:29;;;;;;;4.25;2.00;;;15.80;99.90;;;;;;5044746;28;20048;-68
2023/08/03 06:52:56;;;;;;;3.58;2.08;;;15.80;99.90;;;;;;5044304;28;20059;-68
2023/08/03 06:55:21;;;;;;;3.05;1.90;;;15.80;99.90;;;;;;5044917;28;20386;-68
2023/08/03 06:57:47;;;;;;;4.97;2.55;;;15.80;99.90;;;;;;5049613;28;20041;-68
2023/08/03 07:00:13;;;;;;;2.90;2.03;;;15.80;99.90;;;;;;5042123;28;20367;-68
2023/08/03 07:02:38;;;;;;;5.45;2.50;;;15.80;99.90;;;;;;5048176;28;20034;-68
2023/08/03 07:05:04;;;;;;;4.05;2.53;;;15.80;99.90;;;;;;5040999;28;20362;-68
2023/08/03 07:07:30;;;;;;;5.78;2.72;;;15.80;99.90;;;;;;5048147;28;20128;-68
2023/08/03 07:09:56;;;;;;;5.60;2.97;;;15.80;99.90;;;;;;5048456;28;20028;-67
2023/08/03 07:12:22;;;;;;;6.30;3.03;;;15.80;99.90;;;;;;5046176;28;20040;-67
2023/08/03 07:14:47;;;;;;;7.15;3.30;;;15.80;99.90;;;;;;5035307;28;20095;-68
2023/08/03 07:17:13;;;;;;;5.60;3.20;;;15.90;99.90;;;;;;5036866;28;20485;-68
2023/08/03 07:19:38;;;;;;;7.65;3.22;;;15.90;99.90;;;;;;5049431;28;20058;-68
2023/08/03 07:22:04;;;;;;;6.63;3.40;;;16.00;99.90;;;;;;5058652;28;20453;-67
2023/08/03 07:24:34;;;;;;;7.97;3.80;;;16.00;99.90;;;;;;5051984;28;20134;-68
2023/08/03 07:27:03;;;;;;;8.23;3.70;;;16.00;99.90;;;;;;5049582;28;20041;-68
2023/08/03 07:29:29;;;;;;;9.27;3.67;;;16.10;99.90;;;;;;5049132;28;20553;-69
2023/08/03 07:31:55;;;;;;;7.15;2.55;;;16.10;99.90;;;;;;5059448;28;20025;-68
2023/08/03 07:34:21;;;;;;;6.20;3.10;;;16.10;99.90;;;;;;5059133;28;20400;-69
2023/08/03 07:36:46;;;;;;;7.30;3.50;;;16.00;99.90;;;;;;5047287;28;20127;-69
2023/08/03 07:39:12;;;;;;;6.65;2.83;;;16.00;99.90;;;;;;5062214;28;20455;-69
2023/08/03 07:41:38;;;;;;;8.65;3.42;;;16.00;99.90;;;;;;5042135;28;20417;-69
2023/08/03 07:44:04;;;;;;;10.07;3.25;;;16.00;99.90;;;;;;5043973;28;20041;-69
2023/08/03 07:46:30;;;;;;;9.40;3.90;;;16.00;99.90;;;;;;5038111;28;20156;-69
2023/08/03 07:48:56;;;;;;;9.45;4.03;;;15.90;99.90;;;;;;5046830;28;20029;-69
2023/08/03 07:51:22;;;;;;;10.30;3.92;;;15.90;99.90;;;;;;5049808;28;20064;-69
2023/08/03 07:53:48;;;;;;;8.02;4.30;;;16.00;99.90;;;;;;5053218;28;20068;-69
2023/08/03 07:56:14;;;;;;;9.80;4.63;;;16.00;99.90;;;;;;5036088;28;20041;-69
2023/08/03 07:58:40;;;;;;;9.45;4.97;;;16.00;99.90;;;;;;5043385;28;20061;-69
2023/08/03 08:01:05;;;;;;;9.50;4.53;;;16.10;99.90;;;;;;5041356;28;20120;-68
2023/08/03 08:03:31;;;;;;;9.00;5.35;;;16.20;99.90;;;;;;5051544;28;20542;-69
2023/08/03 08:06:07;;;;;;;9.93;5.10;;;16.30;99.90;;;;;;5042294;28;20045;-68
2023/08/03 08:08:33;;;;;;;11.82;5.75;;;16.30;99.90;;;;;;5067852;28;20055;-68
2023/08/03 08:10:59;;;;;;;11.55;6.05;;;16.30;99.90;;;;;;5057666;28;20029;-68
2023/08/03 08:13:24;;;;;;;12.75;5.72;;;16.40;99.90;;;;;;5064012;28;20043;-68
2023/08/03 08:15:50;;;;;;;8.82;5.72;;;16.40;99.90;;;;;;5049565;28;20025;-69
2023/08/03 08:18:15;;;;;;;10.40;5.43;;;16.50;99.90;;;;;;5064281;28;20036;-69
2023/08/03 08:20:41;;;;;;;10.80;5.18;;;16.60;99.90;;;;;;5047111;28;20033;-69
2023/08/03 08:23:07;;;;;;;9.15;4.75;;;16.60;99.90;;;;;;5058796;28;20561;-68
2023/08/03 08:25:33;;;;;;;8.43;5.45;;;16.70;99.90;;;;;;5051407;28;20560;-68
2023/08/03 08:27:59;;;;;;;9.75;5.18;;;16.90;99.90;;;;;;5050853;28;20066;-69
2023/08/03 08:30:24;;;;;;;7.82;4.70;;;16.90;99.90;;;;;;5044671;28;20034;-68
2023/08/03 08:32:52;;;;;;;8.55;4.60;;;17.00;99.90;;;;;;5051651;28;20036;-68
2023/08/03 08:35:17;;;;;;;5.95;3.70;;;17.00;99.90;;;;;;5049551;28;20071;-69
2023/08/03 08:37:42;;;;;;;5.35;3.17;;;17.10;99.90;;;;;;5049578;28;20040;-69
2023/08/03 08:40:12;;;;;;;6.40;3.08;;;17.10;99.90;;;;;;5053703;28;20036;-69
2023/08/03 08:42:38;;;;;;;6.63;2.53;;;17.00;99.90;;;;;;5049829;28;20483;-69
2023/08/03 08:45:07;;;;;;;4.80;2.03;;;17.00;99.80;;;;;;5041092;28;20030;-69
2023/08/03 08:47:33;;;;;;;7.70;2.40;;;17.20;99.60;;;;;;5058880;28;20048;-68
2023/08/03 08:49:58;;;;;;;5.05;2.03;;;17.40;99.50;;;;;;5055890;28;20060;-69
2023/08/03 08:52:25;;;;;;;3.42;1.98;;;17.50;99.20;;;;;;5059545;28;20387;-69
2023/08/03 08:55:09;;;;;;;2.58;1.75;;;17.40;98.90;;;;;;5035716;28;20384;-69
2023/08/03 08:57:34;;;;;;;4.07;1.83;;;17.50;98.50;;;;;;5046265;28;20025;-69
2023/08/03 09:00:03;;;;;;;5.47;1.80;;;17.60;98.40;;;;;;5049255;28;20445;-68
2023/08/03 09:02:29;;;;;;;3.55;1.75;;;17.80;98.00;;;;;;5046393;28;20427;-68
2023/08/03 09:04:55;;;;;;;4.00;1.50;;;18.00;96.80;;;;;;5046990;28;20021;-68
2023/08/03 09:07:20;;;;;;;2.72;1.48;;;18.40;97.40;;;;;;5042851;28;20160;-68
2023/08/03 09:09:46;;;;;;;5.07;1.33;;;18.40;96.90;;;;;;5035071;28;20033;-69
2023/08/03 09:12:25;;;;;;;4.03;1.30;;;18.50;95.10;;;;;;5046993;28;20032;-68
2023/08/03 09:14:51;;;;;;;5.90;1.27;;;18.80;95.40;;;;;;5042408;28;20028;-69
2023/08/03 09:17:22;;;;;;;3.78;0.98;;;18.80;94.10;;;;;;5049643;28;20033;-70
2023/08/03 09:19:48;;;;;;;2.70;1.10;;;18.80;94.90;;;;;;5051126;28;20021;-69
2023/08/03 09:22:15;;;;;;;1.85;0.88;;;18.70;95.50;;;;;;5050132;28;20041;-68
2023/08/03 09:24:40;;;;;;;4.65;1.25;;;18.60;95.30;;;;;;5040322;28;20055;-68
2023/08/03 09:27:06;;;;;;;6.10;1.40;;;18.60;95.80;;;;;;5041015;28;20037;-68
2023/08/03 09:29:32;;;;;;;4.53;0.90;;;18.80;95.60;;;;;;5041694;28;20118;-69
2023/08/03 09:32:01;;;;;;;2.90;0.93;;;18.90;94.20;;;;;;5045081;28;20060;-68
2023/08/03 09:34:40;;;;;;;1.48;0.70;;;18.80;94.20;;;;;;5045416;28;20033;-69
2023/08/03 09:37:07;;;;;;;3.22;0.70;;;18.70;94.10;;;;;;5054708;28;20082;-68
2023/08/03 09:39:34;;;;;;;2.95;0.82;;;18.70;93.50;;;;;;5041458;28;20485;-68
2023/08/03 09:42:07;;;;;;;3.80;0.95;;;18.70;93.80;;;;;;5047673;28;20437;-68
2023/08/03 09:44:33;;;;;;;3.50;1.25;;;19.00;95.00;;;;;;5045768;28;20033;-69
2023/08/03 09:47:05;;;;;;;3.08;0.90;;;19.10;93.60;;;;;;5047578;28;20528;-68
2023/08/03 09:49:32;;;;;;;4.72;1.10;;;19.30;94.60;;;;;;5052176;28;20040;-69
2023/08/03 09:52:03;;;;;;;1.20;0.70;;;19.30;94.20;;;;;;5049942;28;20032;-68
2023/08/03 09:54:38;;;;;;;3.88;0.90;;;19.20;92.80;;;;;;5047298;28;20072;-68
2023/08/03 09:57:08;;;;;;;1.67;0.90;;;18.90;92.20;;;;;;5043770;28;20115;-68
2023/08/03 09:59:36;;;;;;;2.38;1.20;;;18.50;94.10;;;;;;5027640;28;20713;-69
2023/08/03 10:02:07;;;;;;;3.05;1.20;;;18.00;95.90;;;;;;5048341;28;20064;-67
2023/08/03 10:04:34;;;;;;;;;;;17.70;96.80;;;;;;5043169;28;20529;-68
2023/08/03 10:07:05;;;;;;;2.97;1.40;;;17.60;97.40;;;;;;5046706;28;20013;-67
2023/08/03 10:09:42;;;;;;;5.97;1.65;;;17.40;97.40;;;;;;5044881;28;20021;-68
2023/08/03 10:12:16;;;;;;;3.40;1.73;;;17.30;97.50;;;;;;5040334;28;20043;-68
2023/08/03 10:14:43;;;;;;;2.75;1.60;;;17.30;98.00;;;;;;5036504;28;20025;-67
2023/08/03 10:17:11;;;;;;;3.90;2.13;;;17.50;97.90;;;;;;5045828;28;20381;-68
2023/08/03 10:19:38;;;;;;;2.05;1.70;;;17.60;98.20;;;;;;5043595;28;20089;-69
2023/08/03 10:22:06;;;;;;;2.90;1.67;;;17.50;97.40;;;;;;5042815;28;20037;-68
2023/08/03 10:24:31;;;;;;;3.33;1.52;;;17.50;97.00;;;;;;5039751;28;20047;-69
2023/08/03 10:27:16;;;;;;;4.35;1.98;;;17.40;97.50;;;;;;5044595;28;20037;-70
2023/08/03 10:29:55;;;;;;;3.40;1.70;;;17.10;98.00;;;;;;5041958;28;20471;-69
2023/08/03 10:32:23;;;;;;;4.45;2.20;;;16.90;98.70;;;;;;5038133;28;20021;-68
2023/08/03 10:34:52;;;;;;;5.25;1.70;;;16.80;99.20;;;;;;5043977;28;20127;-68
2023/08/03 10:37:18;;;;;;;4.72;2.00;;;16.70;99.20;;;;;;5047570;28;20028;-69
2023/08/03 10:39:49;;;;;;;4.53;2.13;;;16.80;99.10;;;;;;5041164;28;20025;-67
2023/08/03 10:42:20;;;;;;;4.43;2.15;;;16.90;99.10;;;;;;5045635;28;20022;-68
2023/08/03 10:44:45;;;;;;;5.60;2.92;;;17.00;99.00;;;;;;5043193;28;20028;-69
2023/08/03 10:47:30;;;;;;;5.82;3.25;;;17.40;99.20;;;;;;5034928;28;20428;-68
2023/08/03 10:49:58;;;;;;;3.30;2.65;;;18.10;99.10;;;;;;5041251;28;20679;-68
2023/08/03 10:52:29;;;;;;;4.30;2.22;;;18.50;97.70;;;;;;5042660;28;20116;-69
2023/08/03 10:54:58;;;;;;;3.10;1.80;;;18.60;97.70;;;;;;5045258;28;20052;-68
2023/08/03 10:57:30;;;;;;;2.88;1.20;;;18.50;97.10;;;;;;5054823;28;20033;-67
2023/08/03 11:00:01;;;;;;;2.25;1.25;;;18.40;97.30;;;;;;5047412;28;20472;-67
2023/08/03 11:02:29;;;;;;;4.72;1.20;;;18.30;97.40;;;;;;5047853;28;20029;-69
2023/08/03 11:04:58;;;;;;;2.08;0.90;;;18.00;98.60;;;;;;5043219;28;20036;-69
2023/08/03 11:07:32;;;;;;;1.55;0.98;;;17.80;99.30;;;;;;5041799;28;20028;-68
2023/08/03 11:09:59;;;;;;;2.08;1.10;;;17.90;99.10;;;;;;5045592;28;20025;-68
2023/08/03 11:12:27;;;;;;;2.35;1.10;;;18.30;99.20;;;;;;5042542;28;20033;-68
2023/08/03 11:14:54;;;;;;;1.48;0.88;;;18.50;98.20;;;;;;5039407;28;20031;-68
2023/08/03 11:17:27;;;;;;;1.77;1.30;;;18.70;97.40;;;;;;5048564;28;20042;-68
2023/08/03 11:19:55;;;;;;;3.65;1.10;;;18.70;97.80;;;;;;5041737;28;20036;-68
2023/08/03 11:22:21;;;;;;;1.30;1.08;;;19.00;97.50;;;;;;5040779;28;20118;-69
2023/08/03 11:24:54;;;;;;;1.70;0.88;;;19.60;96.30;;;;;;5037709;28;20041;-68
2023/08/03 11:27:20;;;;;;;1.70;0.80;;;20.00;96.00;;;;;;5038833;28;20076;-69
2023/08/03 11:29:45;;;;;;;1.90;0.80;;;20.20;95.20;;;;;;5040826;28;20043;-69
2023/08/03 11:32:11;;;;;;;1.85;0.70;;;20.20;93.10;;;;;;5043023;28;20062;-69
2023/08/03 11:34:40;;;;;;;0.70;0.45;;;20.30;93.80;;;;;;5040584;28;20025;-70
2023/08/03 11:37:06;;;;;;;1.30;0.70;;;20.60;91.40;;;;;;5040185;28;20408;-69
2023/08/03 11:39:32;;;;;;;2.67;0.80;;;20.70;91.70;;;;;;5042849;28;20103;-69
2023/08/03 11:41:58;;;;;;;1.33;0.45;;;20.70;90.10;;;;;;5043289;28;20116;-69
2023/08/03 11:44:24;;;;;;;1.75;0.50;;;20.10;90.50;;;;;;5032347;28;20648;-69
2023/08/03 11:47:02;;;;;;;1.45;0.60;;;19.70;92.00;;;;;;5040190;28;20051;-68
2023/08/03 11:49:29;;;;;;;1.65;0.60;;;19.10;91.60;;;;;;5039242;28;20025;-70
2023/08/03 11:51:59;;;;;;;0.38;0.30;;;18.90;91.90;;;;;;5040881;28;20025;-67
2023/08/03 11:54:25;;;;;;;0.80;0.50;;;18.70;92.10;;;;;;5037962;28;20022;-69
2023/08/03 11:56:51;;;;;;;1.70;0.65;;;19.00;92.80;;;;;;5039161;28;20323;-68
2023/08/03 11:59:17;;;;;;;1.63;0.57;;;19.20;92.40;;;;;;5035765;28;20456;-67
2023/08/03 12:01:47;;;;;;;2.05;0.60;;;19.20;92.20;;;;;;5041703;28;20501;-67
2023/08/03 12:04:13;;;;;;;1.65;0.73;;;19.00;92.70;;;;;;5038119;28;20033;-68
2023/08/03 12:06:46;;;;;;;1.65;0.70;;;19.00;93.70;;;;;;5038752;28;20033;-68
2023/08/03 12:09:26;;;;;;;1.05;0.70;;;18.40;94.90;;;;;;5032395;28;20044;-68
2023/08/03 12:12:10;;;;;;;2.83;0.73;;;18.10;95.60;;;;;;5038519;28;20025;-68
2023/08/03 12:14:36;;;;;;;3.03;0.70;;;18.10;95.40;;;;;;5036023;28;20037;-68
2023/08/03 12:17:02;;;;;;;0.98;0.70;;;18.10;95.50;;;;;;5039952;28;20044;-67
2023/08/03 12:19:32;;;;;;;1.60;0.88;;;18.10;95.30;;;;;;5035121;28;20420;-68
2023/08/03 12:22:01;;;;;;;1.35;0.93;;;18.20;95.60;;;;;;5034976;28;20477;-69
2023/08/03 12:24:27;;;;;;;1.85;0.90;;;18.30;96.00;;;;;;5039767;28;20048;-68
2023/08/03 12:26:53;;;;;;;3.72;0.80;;;18.50;95.60;;;;;;5048798;28;20504;-68
2023/08/03 12:29:18;;;;;;;1.65;0.77;;;18.80;95.40;;;;;;5039937;28;20038;-69
2023/08/03 12:31:43;;;;;;;1.27;0.50;;;19.60;94.90;;;;;;5042437;28;20021;-70
2023/08/03 12:34:09;;;;;;;2.00;0.70;;;20.20;94.10;;;;;;5049563;28;20041;-71
2023/08/03 12:36:34;;;;;;;1.90;0.52;;;20.30;91.70;;;;;;5039614;28;20519;-70
2023/08/03 12:39:00;;;;;;;1.75;0.60;;;20.50;90.90;;;;;;5038726;28;20432;-69
2023/08/03 12:41:25;;;;;;;1.30;0.73;;;20.90;90.70;;;;;;5051507;28;20115;-71
2023/08/03 12:43:51;;;;;;;1.65;0.50;;;21.00;89.90;;;;;;5039862;28;20489;-70
2023/08/03 12:46:17;;;;;;;2.63;0.50;;;21.40;88.40;;;;;;5046263;28;20040;-71